sensor_id;sensor_type;location;lat;lon;timestamp;P1;durP1;ratioP1;P2;durP2;ratioP2
56991;SDS011;42885;49.754;18.636;2022-11-18T00:02:19;59.80;;;35.48;;
56991;SDS011;42885;49.754;18.636;2022-11-18T00:04:50;59.88;;;35.43;;
56991;SDS011;42885;49.754;18.636;2022-11-18T00:07:21;55.17;;;34.15;;
56991;SDS011;42885;49.754;18.636;2022-11-18T00:09:54;61.40;;;34.70;;
56991;SDS011;42885;49.754;18.636;2022-11-18T00:12:24;55.20;;;34.83;;
56991;SDS011;42885;49.754;18.636;2022-11-18T00:15:13;62.60;;;34.55;;
56991;SDS011;42885;49.754;18.636;2022-11-18T00:17:44;61.42;;;34.83;;
56991;SDS011;42885;49.754;18.636;2022-11-18T00:20:15;65.25;;;36.33;;
56991;SDS011;42885;49.754;18.636;2022-11-18T00:22:46;56.65;;;33.92;;
56991;SDS011;42885;49.754;18.636;2022-11-18T00:25:17;55.75;;;32.55;;
56991;SDS011;42885;49.754;18.636;2022-11-18T00:27:48;56.25;;;33.33;;
56991;SDS011;42885;49.754;18.636;2022-11-18T00:30:19;56.13;;;33.90;;
56991;SDS011;42885;49.754;18.636;2022-11-18T00:32:50;53.35;;;31.60;;
56991;SDS011;42885;49.754;18.636;2022-11-18T00:35:21;55.15;;;32.63;;
56991;SDS011;42885;49.754;18.636;2022-11-18T00:37:51;57.85;;;31.77;;
56991;SDS011;42885;49.754;18.636;2022-11-18T00:40:22;59.18;;;33.70;;
56991;SDS011;42885;49.754;18.636;2022-11-18T00:42:54;59.15;;;32.53;;
56991;SDS011;42885;49.754;18.636;2022-11-18T00:45:25;58.83;;;34.18;;
56991;SDS011;42885;49.754;18.636;2022-11-18T00:47:56;55.40;;;33.48;;
56991;SDS011;42885;49.754;18.636;2022-11-18T00:50:27;58.23;;;33.92;;
56991;SDS011;42885;49.754;18.636;2022-11-18T00:52:58;59.70;;;34.53;;
56991;SDS011;42885;49.754;18.636;2022-11-18T00:55:28;57.38;;;32.03;;
56991;SDS011;42885;49.754;18.636;2022-11-18T00:57:59;55.60;;;31.27;;
56991;SDS011;42885;49.754;18.636;2022-11-18T01:00:30;55.73;;;32.25;;
56991;SDS011;42885;49.754;18.636;2022-11-18T01:03:01;54.63;;;31.23;;
56991;SDS011;42885;49.754;18.636;2022-11-18T01:05:32;54.65;;;30.75;;
56991;SDS011;42885;49.754;18.636;2022-11-18T01:08:04;52.20;;;30.68;;
56991;SDS011;42885;49.754;18.636;2022-11-18T01:10:36;51.40;;;30.70;;
56991;SDS011;42885;49.754;18.636;2022-11-18T01:13:13;55.15;;;31.33;;
56991;SDS011;42885;49.754;18.636;2022-11-18T01:15:49;51.50;;;30.43;;
56991;SDS011;42885;49.754;18.636;2022-11-18T01:23:31;57.48;;;32.15;;
56991;SDS011;42885;49.754;18.636;2022-11-18T01:26:05;58.40;;;33.28;;
56991;SDS011;42885;49.754;18.636;2022-11-18T01:28:38;59.77;;;34.03;;
56991;SDS011;42885;49.754;18.636;2022-11-18T01:31:11;64.42;;;34.23;;
56991;SDS011;42885;49.754;18.636;2022-11-18T01:33:43;66.67;;;33.88;;
56991;SDS011;42885;49.754;18.636;2022-11-18T01:36:19;66.40;;;34.43;;
56991;SDS011;42885;49.754;18.636;2022-11-18T01:38:52;71.05;;;36.85;;
56991;SDS011;42885;49.754;18.636;2022-11-18T01:41:24;63.02;;;34.92;;
56991;SDS011;42885;49.754;18.636;2022-11-18T01:43:59;65.72;;;35.05;;
56991;SDS011;42885;49.754;18.636;2022-11-18T01:46:32;63.90;;;33.88;;
56991;SDS011;42885;49.754;18.636;2022-11-18T01:49:09;61.55;;;33.48;;
56991;SDS011;42885;49.754;18.636;2022-11-18T01:51:41;62.93;;;33.70;;
56991;SDS011;42885;49.754;18.636;2022-11-18T01:54:19;63.02;;;34.10;;
56991;SDS011;42885;49.754;18.636;2022-11-18T01:56:53;57.25;;;31.75;;
56991;SDS011;42885;49.754;18.636;2022-11-18T01:59:27;59.77;;;34.13;;
56991;SDS011;42885;49.754;18.636;2022-11-18T02:01:59;62.88;;;33.20;;
56991;SDS011;42885;49.754;18.636;2022-11-18T02:04:37;73.80;;;35.43;;
56991;SDS011;42885;49.754;18.636;2022-11-18T02:07:10;59.77;;;33.88;;
56991;SDS011;42885;49.754;18.636;2022-11-18T02:09:42;66.83;;;34.50;;
56991;SDS011;42885;49.754;18.636;2022-11-18T02:12:13;63.87;;;33.78;;
56991;SDS011;42885;49.754;18.636;2022-11-18T02:14:44;63.50;;;34.53;;
56991;SDS011;42885;49.754;18.636;2022-11-18T02:22:52;60.92;;;32.65;;
56991;SDS011;42885;49.754;18.636;2022-11-18T02:28:28;62.67;;;33.98;;
56991;SDS011;42885;49.754;18.636;2022-11-18T02:31:13;61.60;;;33.23;;
56991;SDS011;42885;49.754;18.636;2022-11-18T02:33:48;58.73;;;32.25;;
56991;SDS011;42885;49.754;18.636;2022-11-18T02:36:38;60.78;;;33.25;;
56991;SDS011;42885;49.754;18.636;2022-11-18T02:39:12;64.30;;;33.18;;
56991;SDS011;42885;49.754;18.636;2022-11-18T02:44:15;60.63;;;31.90;;
56991;SDS011;42885;49.754;18.636;2022-11-18T02:46:48;60.28;;;32.30;;
56991;SDS011;42885;49.754;18.636;2022-11-18T02:49:22;63.30;;;31.95;;
56991;SDS011;42885;49.754;18.636;2022-11-18T02:52:04;61.67;;;32.47;;
56991;SDS011;42885;49.754;18.636;2022-11-18T02:54:38;69.70;;;33.50;;
56991;SDS011;42885;49.754;18.636;2022-11-18T02:57:12;64.45;;;34.80;;
56991;SDS011;42885;49.754;18.636;2022-11-18T02:59:44;70.92;;;34.75;;
56991;SDS011;42885;49.754;18.636;2022-11-18T03:02:16;74.60;;;35.28;;
56991;SDS011;42885;49.754;18.636;2022-11-18T03:04:50;78.17;;;36.28;;
56991;SDS011;42885;49.754;18.636;2022-11-18T03:07:27;77.30;;;36.15;;
56991;SDS011;42885;49.754;18.636;2022-11-18T03:10:00;78.05;;;36.50;;
56991;SDS011;42885;49.754;18.636;2022-11-18T03:18:06;71.87;;;35.13;;
56991;SDS011;42885;49.754;18.636;2022-11-18T03:20:44;73.45;;;35.35;;
56991;SDS011;42885;49.754;18.636;2022-11-18T03:25:59;61.65;;;31.50;;
56991;SDS011;42885;49.754;18.636;2022-11-18T03:34:01;65.22;;;32.80;;
56991;SDS011;42885;49.754;18.636;2022-11-18T03:36:37;63.78;;;31.55;;
56991;SDS011;42885;49.754;18.636;2022-11-18T03:39:10;59.88;;;30.23;;
56991;SDS011;42885;49.754;18.636;2022-11-18T03:41:45;62.23;;;30.02;;
56991;SDS011;42885;49.754;18.636;2022-11-18T03:44:22;60.80;;;31.35;;
56991;SDS011;42885;49.754;18.636;2022-11-18T03:46:55;62.78;;;30.60;;
56991;SDS011;42885;49.754;18.636;2022-11-18T03:49:29;59.83;;;30.25;;
56991;SDS011;42885;49.754;18.636;2022-11-18T03:52:06;57.33;;;29.93;;
56991;SDS011;42885;49.754;18.636;2022-11-18T03:54:39;61.87;;;29.93;;
56991;SDS011;42885;49.754;18.636;2022-11-18T03:57:15;56.60;;;29.07;;
56991;SDS011;42885;49.754;18.636;2022-11-18T04:00:07;57.10;;;28.67;;
56991;SDS011;42885;49.754;18.636;2022-11-18T04:02:39;55.58;;;28.90;;
56991;SDS011;42885;49.754;18.636;2022-11-18T04:05:11;56.25;;;28.00;;
56991;SDS011;42885;49.754;18.636;2022-11-18T04:10:38;55.48;;;27.60;;
56991;SDS011;42885;49.754;18.636;2022-11-18T04:13:21;55.23;;;28.37;;
56991;SDS011;42885;49.754;18.636;2022-11-18T04:15:53;53.98;;;27.65;;
56991;SDS011;42885;49.754;18.636;2022-11-18T04:18:24;50.00;;;26.67;;
56991;SDS011;42885;49.754;18.636;2022-11-18T04:20:55;47.67;;;24.37;;
56991;SDS011;42885;49.754;18.636;2022-11-18T04:23:26;43.10;;;22.95;;
56991;SDS011;42885;49.754;18.636;2022-11-18T04:25:57;42.90;;;24.37;;
56991;SDS011;42885;49.754;18.636;2022-11-18T04:28:28;43.05;;;23.00;;
56991;SDS011;42885;49.754;18.636;2022-11-18T04:30:58;39.55;;;21.90;;
56991;SDS011;42885;49.754;18.636;2022-11-18T04:33:29;44.13;;;24.32;;
56991;SDS011;42885;49.754;18.636;2022-11-18T04:36:00;44.20;;;23.60;;
56991;SDS011;42885;49.754;18.636;2022-11-18T04:38:31;41.50;;;24.18;;
56991;SDS011;42885;49.754;18.636;2022-11-18T04:41:02;41.98;;;23.57;;
56991;SDS011;42885;49.754;18.636;2022-11-18T04:43:33;41.75;;;23.27;;
56991;SDS011;42885;49.754;18.636;2022-11-18T04:46:04;37.28;;;22.85;;
56991;SDS011;42885;49.754;18.636;2022-11-18T04:48:35;37.83;;;23.02;;
56991;SDS011;42885;49.754;18.636;2022-11-18T04:51:06;40.63;;;22.50;;
56991;SDS011;42885;49.754;18.636;2022-11-18T04:53:37;36.20;;;21.35;;
56991;SDS011;42885;49.754;18.636;2022-11-18T04:56:08;34.20;;;21.82;;
56991;SDS011;42885;49.754;18.636;2022-11-18T04:58:39;40.58;;;22.20;;
56991;SDS011;42885;49.754;18.636;2022-11-18T05:01:10;40.67;;;23.07;;
56991;SDS011;42885;49.754;18.636;2022-11-18T05:03:41;38.30;;;23.32;;
56991;SDS011;42885;49.754;18.636;2022-11-18T05:06:11;39.25;;;23.05;;
56991;SDS011;42885;49.754;18.636;2022-11-18T05:08:42;41.58;;;24.25;;
56991;SDS011;42885;49.754;18.636;2022-11-18T05:11:13;40.28;;;22.58;;
56991;SDS011;42885;49.754;18.636;2022-11-18T05:14:02;40.95;;;22.02;;
56991;SDS011;42885;49.754;18.636;2022-11-18T05:16:36;39.33;;;21.77;;
56991;SDS011;42885;49.754;18.636;2022-11-18T05:19:07;35.90;;;20.68;;
56991;SDS011;42885;49.754;18.636;2022-11-18T05:21:38;36.33;;;20.57;;
56991;SDS011;42885;49.754;18.636;2022-11-18T05:24:10;35.18;;;19.98;;
56991;SDS011;42885;49.754;18.636;2022-11-18T05:26:41;34.85;;;19.30;;
56991;SDS011;42885;49.754;18.636;2022-11-18T05:29:12;31.37;;;20.00;;
56991;SDS011;42885;49.754;18.636;2022-11-18T05:31:43;33.02;;;19.52;;
56991;SDS011;42885;49.754;18.636;2022-11-18T05:34:15;30.12;;;18.48;;
56991;SDS011;42885;49.754;18.636;2022-11-18T05:36:46;31.10;;;18.35;;
56991;SDS011;42885;49.754;18.636;2022-11-18T05:39:17;28.47;;;16.97;;
56991;SDS011;42885;49.754;18.636;2022-11-18T05:41:48;26.73;;;17.77;;
56991;SDS011;42885;49.754;18.636;2022-11-18T05:44:36;29.55;;;17.75;;
56991;SDS011;42885;49.754;18.636;2022-11-18T05:47:07;26.45;;;17.05;;
56991;SDS011;42885;49.754;18.636;2022-11-18T05:49:38;29.72;;;17.30;;
56991;SDS011;42885;49.754;18.636;2022-11-18T05:52:09;31.02;;;17.32;;
56991;SDS011;42885;49.754;18.636;2022-11-18T05:54:41;27.07;;;16.45;;
56991;SDS011;42885;49.754;18.636;2022-11-18T05:59:44;36.45;;;22.27;;
56991;SDS011;42885;49.754;18.636;2022-11-18T06:02:15;28.17;;;16.32;;
56991;SDS011;42885;49.754;18.636;2022-11-18T06:04:56;25.90;;;16.73;;
56991;SDS011;42885;49.754;18.636;2022-11-18T06:07:33;24.40;;;16.35;;
56991;SDS011;42885;49.754;18.636;2022-11-18T06:10:05;24.92;;;16.10;;
56991;SDS011;42885;49.754;18.636;2022-11-18T06:12:39;30.97;;;16.90;;
56991;SDS011;42885;49.754;18.636;2022-11-18T06:17:59;23.38;;;14.63;;
56991;SDS011;42885;49.754;18.636;2022-11-18T06:20:35;22.75;;;14.25;;
56991;SDS011;42885;49.754;18.636;2022-11-18T06:23:08;21.68;;;14.65;;
56991;SDS011;42885;49.754;18.636;2022-11-18T06:25:39;22.48;;;15.43;;
56991;SDS011;42885;49.754;18.636;2022-11-18T06:28:11;26.48;;;16.77;;
56991;SDS011;42885;49.754;18.636;2022-11-18T06:30:44;27.25;;;18.15;;
56991;SDS011;42885;49.754;18.636;2022-11-18T06:33:15;26.27;;;17.20;;
56991;SDS011;42885;49.754;18.636;2022-11-18T06:35:46;24.67;;;16.32;;
56991;SDS011;42885;49.754;18.636;2022-11-18T06:38:17;26.83;;;16.90;;
56991;SDS011;42885;49.754;18.636;2022-11-18T06:40:48;29.12;;;19.25;;
56991;SDS011;42885;49.754;18.636;2022-11-18T06:43:19;25.90;;;17.87;;
56991;SDS011;42885;49.754;18.636;2022-11-18T06:46:14;26.15;;;17.73;;
56991;SDS011;42885;49.754;18.636;2022-11-18T06:49:01;25.60;;;17.30;;
56991;SDS011;42885;49.754;18.636;2022-11-18T06:51:32;25.70;;;16.12;;
56991;SDS011;42885;49.754;18.636;2022-11-18T06:54:03;24.27;;;17.35;;
56991;SDS011;42885;49.754;18.636;2022-11-18T06:56:34;25.12;;;16.73;;
56991;SDS011;42885;49.754;18.636;2022-11-18T06:59:05;28.95;;;18.50;;
56991;SDS011;42885;49.754;18.636;2022-11-18T07:01:37;24.40;;;16.42;;
56991;SDS011;42885;49.754;18.636;2022-11-18T07:04:10;20.32;;;13.78;;
56991;SDS011;42885;49.754;18.636;2022-11-18T07:06:41;20.97;;;14.28;;
56991;SDS011;42885;49.754;18.636;2022-11-18T07:09:12;22.05;;;14.68;;
56991;SDS011;42885;49.754;18.636;2022-11-18T07:11:42;27.02;;;17.70;;
56991;SDS011;42885;49.754;18.636;2022-11-18T07:14:13;28.67;;;19.70;;
56991;SDS011;42885;49.754;18.636;2022-11-18T07:16:44;30.48;;;19.57;;
56991;SDS011;42885;49.754;18.636;2022-11-18T07:19:15;31.40;;;20.97;;
56991;SDS011;42885;49.754;18.636;2022-11-18T07:21:46;33.48;;;21.35;;
56991;SDS011;42885;49.754;18.636;2022-11-18T07:24:17;32.37;;;20.27;;
56991;SDS011;42885;49.754;18.636;2022-11-18T07:26:48;28.00;;;18.62;;
56991;SDS011;42885;49.754;18.636;2022-11-18T07:29:21;24.40;;;16.33;;
56991;SDS011;42885;49.754;18.636;2022-11-18T07:31:52;27.00;;;17.52;;
56991;SDS011;42885;49.754;18.636;2022-11-18T07:34:23;32.33;;;17.63;;
56991;SDS011;42885;49.754;18.636;2022-11-18T07:36:54;24.80;;;17.25;;
56991;SDS011;42885;49.754;18.636;2022-11-18T07:39:25;26.70;;;17.07;;
56991;SDS011;42885;49.754;18.636;2022-11-18T07:41:56;40.98;;;26.73;;
56991;SDS011;42885;49.754;18.636;2022-11-18T07:44:28;27.95;;;16.00;;
56991;SDS011;42885;49.754;18.636;2022-11-18T07:46:59;29.95;;;17.70;;
56991;SDS011;42885;49.754;18.636;2022-11-18T07:49:30;26.47;;;16.50;;
56991;SDS011;42885;49.754;18.636;2022-11-18T07:52:01;26.97;;;16.55;;
56991;SDS011;42885;49.754;18.636;2022-11-18T07:54:32;25.48;;;17.12;;
56991;SDS011;42885;49.754;18.636;2022-11-18T07:57:03;28.55;;;18.10;;
56991;SDS011;42885;49.754;18.636;2022-11-18T07:59:34;32.60;;;18.00;;
56991;SDS011;42885;49.754;18.636;2022-11-18T08:02:05;30.75;;;19.20;;
56991;SDS011;42885;49.754;18.636;2022-11-18T08:04:36;27.80;;;17.02;;
56991;SDS011;42885;49.754;18.636;2022-11-18T08:07:09;27.87;;;17.90;;
56991;SDS011;42885;49.754;18.636;2022-11-18T08:09:40;30.57;;;18.57;;
56991;SDS011;42885;49.754;18.636;2022-11-18T08:12:11;29.18;;;18.17;;
56991;SDS011;42885;49.754;18.636;2022-11-18T08:14:42;31.25;;;20.45;;
56991;SDS011;42885;49.754;18.636;2022-11-18T08:17:13;33.15;;;19.67;;
56991;SDS011;42885;49.754;18.636;2022-11-18T08:19:44;31.05;;;19.77;;
56991;SDS011;42885;49.754;18.636;2022-11-18T08:22:15;29.00;;;18.30;;
56991;SDS011;42885;49.754;18.636;2022-11-18T08:24:47;32.30;;;20.07;;
56991;SDS011;42885;49.754;18.636;2022-11-18T08:27:18;31.10;;;20.30;;
56991;SDS011;42885;49.754;18.636;2022-11-18T08:29:49;32.10;;;20.02;;
56991;SDS011;42885;49.754;18.636;2022-11-18T08:32:20;32.30;;;19.90;;
56991;SDS011;42885;49.754;18.636;2022-11-18T08:34:51;32.45;;;19.55;;
56991;SDS011;42885;49.754;18.636;2022-11-18T08:37:22;30.45;;;18.45;;
56991;SDS011;42885;49.754;18.636;2022-11-18T08:39:53;28.50;;;18.98;;
56991;SDS011;42885;49.754;18.636;2022-11-18T08:42:24;30.85;;;19.25;;
56991;SDS011;42885;49.754;18.636;2022-11-18T08:44:55;31.95;;;19.25;;
56991;SDS011;42885;49.754;18.636;2022-11-18T08:47:26;32.10;;;19.40;;
56991;SDS011;42885;49.754;18.636;2022-11-18T08:49:57;34.23;;;20.48;;
56991;SDS011;42885;49.754;18.636;2022-11-18T08:52:28;35.45;;;19.85;;
56991;SDS011;42885;49.754;18.636;2022-11-18T08:54:59;28.90;;;18.15;;
56991;SDS011;42885;49.754;18.636;2022-11-18T08:57:30;32.23;;;19.62;;
56991;SDS011;42885;49.754;18.636;2022-11-18T09:00:02;32.63;;;20.08;;
56991;SDS011;42885;49.754;18.636;2022-11-18T09:02:34;30.77;;;18.98;;
56991;SDS011;42885;49.754;18.636;2022-11-18T09:05:05;32.95;;;19.25;;
56991;SDS011;42885;49.754;18.636;2022-11-18T09:07:36;31.33;;;18.37;;
56991;SDS011;42885;49.754;18.636;2022-11-18T09:10:07;29.50;;;18.77;;
56991;SDS011;42885;49.754;18.636;2022-11-18T09:12:39;31.55;;;19.20;;
56991;SDS011;42885;49.754;18.636;2022-11-18T09:15:10;29.48;;;18.62;;
56991;SDS011;42885;49.754;18.636;2022-11-18T09:17:41;27.37;;;17.95;;
56991;SDS011;42885;49.754;18.636;2022-11-18T09:20:13;28.33;;;17.97;;
56991;SDS011;42885;49.754;18.636;2022-11-18T09:22:45;24.25;;;16.45;;
56991;SDS011;42885;49.754;18.636;2022-11-18T09:25:16;27.90;;;17.85;;
56991;SDS011;42885;49.754;18.636;2022-11-18T09:27:47;27.27;;;17.37;;
56991;SDS011;42885;49.754;18.636;2022-11-18T09:30:19;25.67;;;17.47;;
56991;SDS011;42885;49.754;18.636;2022-11-18T09:32:51;23.20;;;15.60;;
56991;SDS011;42885;49.754;18.636;2022-11-18T09:35:21;24.50;;;16.48;;
56991;SDS011;42885;49.754;18.636;2022-11-18T09:37:53;24.72;;;16.42;;
56991;SDS011;42885;49.754;18.636;2022-11-18T09:40:24;26.33;;;16.95;;
56991;SDS011;42885;49.754;18.636;2022-11-18T09:42:58;27.20;;;17.27;;
56991;SDS011;42885;49.754;18.636;2022-11-18T09:45:37;26.00;;;16.70;;
56991;SDS011;42885;49.754;18.636;2022-11-18T09:48:15;23.35;;;16.23;;
56991;SDS011;42885;49.754;18.636;2022-11-18T09:50:47;24.12;;;15.72;;
56991;SDS011;42885;49.754;18.636;2022-11-18T09:55:51;25.82;;;16.62;;
56991;SDS011;42885;49.754;18.636;2022-11-18T09:58:31;24.87;;;16.00;;
56991;SDS011;42885;49.754;18.636;2022-11-18T10:01:08;24.52;;;16.48;;
56991;SDS011;42885;49.754;18.636;2022-11-18T10:03:41;23.38;;;15.58;;
56991;SDS011;42885;49.754;18.636;2022-11-18T10:20:40;20.92;;;14.20;;
56991;SDS011;42885;49.754;18.636;2022-11-18T10:23:28;23.83;;;15.72;;
56991;SDS011;42885;49.754;18.636;2022-11-18T10:26:04;22.47;;;14.47;;
56991;SDS011;42885;49.754;18.636;2022-11-18T10:28:35;23.47;;;15.27;;
56991;SDS011;42885;49.754;18.636;2022-11-18T10:31:12;21.45;;;15.05;;
56991;SDS011;42885;49.754;18.636;2022-11-18T10:33:40;22.23;;;16.03;;
56991;SDS011;42885;49.754;18.636;2022-11-18T10:38:52;22.82;;;16.80;;
56991;SDS011;42885;49.754;18.636;2022-11-18T10:41:50;26.20;;;16.77;;
56991;SDS011;42885;49.754;18.636;2022-11-18T10:44:32;22.87;;;16.15;;
56991;SDS011;42885;49.754;18.636;2022-11-18T10:47:15;24.95;;;16.77;;
56991;SDS011;42885;49.754;18.636;2022-11-18T10:49:47;25.73;;;16.80;;
56991;SDS011;42885;49.754;18.636;2022-11-18T10:52:20;30.37;;;17.40;;
56991;SDS011;42885;49.754;18.636;2022-11-18T10:55:08;26.37;;;16.40;;
56991;SDS011;42885;49.754;18.636;2022-11-18T10:57:58;24.10;;;16.45;;
56991;SDS011;42885;49.754;18.636;2022-11-18T11:03:22;23.75;;;15.20;;
56991;SDS011;42885;49.754;18.636;2022-11-18T11:11:38;26.30;;;16.12;;
56991;SDS011;42885;49.754;18.636;2022-11-18T11:14:15;25.65;;;15.70;;
56991;SDS011;42885;49.754;18.636;2022-11-18T11:17:08;22.95;;;14.90;;
56991;SDS011;42885;49.754;18.636;2022-11-18T11:22:29;23.65;;;14.87;;
56991;SDS011;42885;49.754;18.636;2022-11-18T11:25:00;25.43;;;15.63;;
56991;SDS011;42885;49.754;18.636;2022-11-18T11:27:42;26.62;;;15.83;;
56991;SDS011;42885;49.754;18.636;2022-11-18T11:30:15;20.32;;;13.90;;
56991;SDS011;42885;49.754;18.636;2022-11-18T11:35:46;20.25;;;13.43;;
56991;SDS011;42885;49.754;18.636;2022-11-18T11:38:52;19.82;;;13.95;;
56991;SDS011;42885;49.754;18.636;2022-11-18T11:41:36;21.73;;;13.88;;
56991;SDS011;42885;49.754;18.636;2022-11-18T11:47:12;20.60;;;13.30;;
56991;SDS011;42885;49.754;18.636;2022-11-18T11:50:10;18.87;;;13.13;;
56991;SDS011;42885;49.754;18.636;2022-11-18T11:55:53;19.85;;;12.50;;
56991;SDS011;42885;49.754;18.636;2022-11-18T12:04:45;18.60;;;12.30;;
56991;SDS011;42885;49.754;18.636;2022-11-18T12:07:22;19.20;;;12.60;;
56991;SDS011;42885;49.754;18.636;2022-11-18T12:16:00;18.57;;;11.60;;
56991;SDS011;42885;49.754;18.636;2022-11-18T12:18:47;17.12;;;11.68;;
56991;SDS011;42885;49.754;18.636;2022-11-18T12:26:50;18.32;;;11.35;;
56991;SDS011;42885;49.754;18.636;2022-11-18T12:29:22;17.32;;;11.50;;
56991;SDS011;42885;49.754;18.636;2022-11-18T12:31:56;19.97;;;11.93;;
56991;SDS011;42885;49.754;18.636;2022-11-18T12:39:58;18.32;;;12.25;;
56991;SDS011;42885;49.754;18.636;2022-11-18T12:42:32;19.17;;;12.00;;
56991;SDS011;42885;49.754;18.636;2022-11-18T12:51:10;20.57;;;11.93;;
56991;SDS011;42885;49.754;18.636;2022-11-18T12:53:42;17.25;;;11.75;;
56991;SDS011;42885;49.754;18.636;2022-11-18T12:58:55;19.57;;;12.53;;
56991;SDS011;42885;49.754;18.636;2022-11-18T13:01:31;19.55;;;12.28;;
56991;SDS011;42885;49.754;18.636;2022-11-18T13:04:16;22.40;;;13.75;;
56991;SDS011;42885;49.754;18.636;2022-11-18T13:06:48;21.10;;;12.53;;
56991;SDS011;42885;49.754;18.636;2022-11-18T13:09:25;20.15;;;12.25;;
56991;SDS011;42885;49.754;18.636;2022-11-18T13:12:03;20.05;;;13.05;;
56991;SDS011;42885;49.754;18.636;2022-11-18T13:14:39;21.45;;;12.95;;
56991;SDS011;42885;49.754;18.636;2022-11-18T13:17:34;18.90;;;12.43;;
56991;SDS011;42885;49.754;18.636;2022-11-18T13:20:27;21.02;;;13.38;;
56991;SDS011;42885;49.754;18.636;2022-11-18T13:23:14;20.57;;;13.83;;
56991;SDS011;42885;49.754;18.636;2022-11-18T13:26:04;20.83;;;13.83;;
56991;SDS011;42885;49.754;18.636;2022-11-18T13:31:34;26.82;;;15.88;;
56991;SDS011;42885;49.754;18.636;2022-11-18T13:34:22;27.25;;;16.70;;
56991;SDS011;42885;49.754;18.636;2022-11-18T13:36:55;29.77;;;17.77;;
56991;SDS011;42885;49.754;18.636;2022-11-18T13:39:31;29.12;;;17.95;;
56991;SDS011;42885;49.754;18.636;2022-11-18T13:42:03;30.95;;;18.75;;
56991;SDS011;42885;49.754;18.636;2022-11-18T13:44:36;31.20;;;19.10;;
56991;SDS011;42885;49.754;18.636;2022-11-18T13:47:10;31.80;;;18.92;;
56991;SDS011;42885;49.754;18.636;2022-11-18T13:49:58;32.20;;;20.72;;
56991;SDS011;42885;49.754;18.636;2022-11-18T13:52:27;31.23;;;19.50;;
56991;SDS011;42885;49.754;18.636;2022-11-18T13:57:50;27.95;;;18.42;;
56991;SDS011;42885;49.754;18.636;2022-11-18T14:00:24;28.07;;;17.67;;
56991;SDS011;42885;49.754;18.636;2022-11-18T14:02:58;28.80;;;17.42;;
56991;SDS011;42885;49.754;18.636;2022-11-18T14:05:31;27.22;;;16.90;;
56991;SDS011;42885;49.754;18.636;2022-11-18T14:08:04;29.48;;;17.90;;
56991;SDS011;42885;49.754;18.636;2022-11-18T14:13:23;31.60;;;18.52;;
56991;SDS011;42885;49.754;18.636;2022-11-18T14:15:57;31.23;;;18.62;;
56991;SDS011;42885;49.754;18.636;2022-11-18T14:18:31;33.98;;;20.08;;
56991;SDS011;42885;49.754;18.636;2022-11-18T14:21:04;36.63;;;23.80;;
56991;SDS011;42885;49.754;18.636;2022-11-18T14:23:36;41.53;;;24.23;;
56991;SDS011;42885;49.754;18.636;2022-11-18T14:26:08;42.43;;;25.43;;
56991;SDS011;42885;49.754;18.636;2022-11-18T14:28:39;42.35;;;25.35;;
56991;SDS011;42885;49.754;18.636;2022-11-18T14:31:21;45.33;;;26.70;;
56991;SDS011;42885;49.754;18.636;2022-11-18T14:34:10;48.83;;;27.82;;
56991;SDS011;42885;49.754;18.636;2022-11-18T14:36:35;47.70;;;28.45;;
56991;SDS011;42885;49.754;18.636;2022-11-18T14:41:55;51.83;;;27.73;;
56991;SDS011;42885;49.754;18.636;2022-11-18T14:44:28;48.68;;;27.98;;
56991;SDS011;42885;49.754;18.636;2022-11-18T14:47:00;49.00;;;28.67;;
56991;SDS011;42885;49.754;18.636;2022-11-18T14:49:33;53.45;;;29.18;;
56991;SDS011;42885;49.754;18.636;2022-11-18T14:52:08;55.57;;;29.40;;
56991;SDS011;42885;49.754;18.636;2022-11-18T14:54:38;63.53;;;32.10;;
56991;SDS011;42885;49.754;18.636;2022-11-18T14:57:11;66.85;;;33.13;;
56991;SDS011;42885;49.754;18.636;2022-11-18T14:59:46;69.62;;;34.73;;
56991;SDS011;42885;49.754;18.636;2022-11-18T15:02:17;58.85;;;31.68;;
56991;SDS011;42885;49.754;18.636;2022-11-18T15:04:48;64.77;;;34.30;;
56991;SDS011;42885;49.754;18.636;2022-11-18T15:07:20;59.07;;;31.20;;
56991;SDS011;42885;49.754;18.636;2022-11-18T15:09:51;61.83;;;32.10;;
56991;SDS011;42885;49.754;18.636;2022-11-18T15:12:22;65.80;;;30.80;;
56991;SDS011;42885;49.754;18.636;2022-11-18T15:14:53;62.33;;;32.53;;
56991;SDS011;42885;49.754;18.636;2022-11-18T15:17:24;65.80;;;32.90;;
56991;SDS011;42885;49.754;18.636;2022-11-18T15:19:54;59.85;;;30.50;;
56991;SDS011;42885;49.754;18.636;2022-11-18T15:22:26;64.73;;;31.07;;
56991;SDS011;42885;49.754;18.636;2022-11-18T15:24:57;56.98;;;29.95;;
56991;SDS011;42885;49.754;18.636;2022-11-18T15:27:28;64.82;;;30.45;;
56991;SDS011;42885;49.754;18.636;2022-11-18T15:29:59;60.40;;;29.85;;
56991;SDS011;42885;49.754;18.636;2022-11-18T15:32:29;57.20;;;31.15;;
56991;SDS011;42885;49.754;18.636;2022-11-18T15:35:00;312.48;;;220.40;;
56991;SDS011;42885;49.754;18.636;2022-11-18T15:37:31;60.07;;;32.70;;
56991;SDS011;42885;49.754;18.636;2022-11-18T15:40:02;62.58;;;30.85;;
56991;SDS011;42885;49.754;18.636;2022-11-18T15:42:33;54.27;;;29.52;;
56991;SDS011;42885;49.754;18.636;2022-11-18T15:45:04;53.55;;;27.77;;
56991;SDS011;42885;49.754;18.636;2022-11-18T15:47:36;57.50;;;30.40;;
56991;SDS011;42885;49.754;18.636;2022-11-18T15:50:07;52.85;;;29.45;;
56991;SDS011;42885;49.754;18.636;2022-11-18T15:52:41;60.23;;;31.57;;
56991;SDS011;42885;49.754;18.636;2022-11-18T15:55:12;61.47;;;30.43;;
56991;SDS011;42885;49.754;18.636;2022-11-18T15:57:43;64.77;;;29.82;;
56991;SDS011;42885;49.754;18.636;2022-11-18T16:00:14;58.63;;;28.70;;
56991;SDS011;42885;49.754;18.636;2022-11-18T16:02:46;51.73;;;27.93;;
56991;SDS011;42885;49.754;18.636;2022-11-18T16:05:17;52.88;;;27.87;;
56991;SDS011;42885;49.754;18.636;2022-11-18T16:07:48;53.65;;;28.57;;
56991;SDS011;42885;49.754;18.636;2022-11-18T16:10:19;51.68;;;26.90;;
56991;SDS011;42885;49.754;18.636;2022-11-18T16:13:07;52.80;;;28.17;;
56991;SDS011;42885;49.754;18.636;2022-11-18T16:15:38;56.20;;;28.55;;
56991;SDS011;42885;49.754;18.636;2022-11-18T16:20:43;66.28;;;37.10;;
56991;SDS011;42885;49.754;18.636;2022-11-18T16:23:14;50.28;;;26.57;;
56991;SDS011;42885;49.754;18.636;2022-11-18T16:25:44;54.10;;;29.23;;
56991;SDS011;42885;49.754;18.636;2022-11-18T16:28:16;59.03;;;29.60;;
56991;SDS011;42885;49.754;18.636;2022-11-18T16:30:48;53.23;;;28.73;;
56991;SDS011;42885;49.754;18.636;2022-11-18T16:33:37;49.67;;;26.52;;
56991;SDS011;42885;49.754;18.636;2022-11-18T16:36:09;50.85;;;26.65;;
56991;SDS011;42885;49.754;18.636;2022-11-18T16:38:39;50.95;;;26.15;;
56991;SDS011;42885;49.754;18.636;2022-11-18T16:41:10;53.33;;;28.30;;
56991;SDS011;42885;49.754;18.636;2022-11-18T16:44:00;59.75;;;29.60;;
56991;SDS011;42885;49.754;18.636;2022-11-18T16:49:04;54.08;;;28.15;;
56991;SDS011;42885;49.754;18.636;2022-11-18T16:51:36;51.48;;;28.05;;
56991;SDS011;42885;49.754;18.636;2022-11-18T16:54:13;59.13;;;31.55;;